createdAt,value
2018-12-23T00:03:22.011Z,8.53
2018-12-23T00:07:33.779Z,8.07
2018-12-23T00:11:45.677Z,9.10
2018-12-23T00:15:57.683Z,8.73
2018-12-23T00:20:10.724Z,8.43
2018-12-23T00:24:22.864Z,8.80
2018-12-23T00:28:34.564Z,9.10
2018-12-23T00:32:46.467Z,9.80
2018-12-23T00:36:58.215Z,8.87
2018-12-23T00:41:10.236Z,8.47
2018-12-23T00:45:22.338Z,8.07
2018-12-23T00:49:34.386Z,8.13
2018-12-23T00:53:46.398Z,8.17
2018-12-23T00:57:58.050Z,8.40
2018-12-23T01:02:09.903Z,7.93
2018-12-23T01:06:21.643Z,6.97
2018-12-23T01:10:33.674Z,6.67
2018-12-23T01:14:45.766Z,7.17
2018-12-23T01:18:58.220Z,5.70
2018-12-23T01:23:09.987Z,6.43
2018-12-23T01:27:22.091Z,5.87
2018-12-23T01:31:34.206Z,6.40
2018-12-23T01:35:46.291Z,6.33
2018-12-23T01:39:58.403Z,6.93
2018-12-23T01:44:09.934Z,6.67
2018-12-23T01:48:21.649Z,7.83
2018-12-23T01:52:33.553Z,8.57
2018-12-23T01:56:45.361Z,8.00
2018-12-23T02:00:57.466Z,7.63
2018-12-23T02:05:09.411Z,7.60
2018-12-23T02:09:21.330Z,7.57
2018-12-23T02:13:33.396Z,7.90
2018-12-23T02:17:45.436Z,6.47
2018-12-23T02:21:57.540Z,6.07
2018-12-23T02:26:09.085Z,5.33
2018-12-23T02:30:20.787Z,5.63
2018-12-23T02:34:32.557Z,5.23
2018-12-23T02:38:44.632Z,5.47
2018-12-23T02:42:56.768Z,5.10
2018-12-23T02:47:08.385Z,5.53
2018-12-23T02:51:20.105Z,6.03
2018-12-23T02:55:31.854Z,5.93
2018-12-23T02:59:44.000Z,6.00
2018-12-23T03:03:56.271Z,5.57
2018-12-23T03:08:08.355Z,5.50
2018-12-23T03:12:20.303Z,5.87
2018-12-23T03:16:32.200Z,5.10
2018-12-23T03:20:44.206Z,5.10
2018-12-23T03:24:56.292Z,5.43
2018-12-23T03:29:07.867Z,5.87
2018-12-23T03:33:19.656Z,5.27
2018-12-23T03:37:31.604Z,5.67
2018-12-23T03:41:43.897Z,5.60
2018-12-23T03:45:55.831Z,5.60
2018-12-23T03:50:08.163Z,5.60
2018-12-23T03:54:20.390Z,5.60
2018-12-23T03:58:32.140Z,6.30
2018-12-23T04:02:44.166Z,5.73
2018-12-23T04:06:56.062Z,6.30
2018-12-23T04:11:08.276Z,6.90
2018-12-23T04:15:20.263Z,5.73
2018-12-23T04:19:32.362Z,6.53
2018-12-23T04:23:43.892Z,5.07
2018-12-23T04:27:55.623Z,5.73
2018-12-23T04:32:07.743Z,5.50
2018-12-23T04:36:19.481Z,6.03
2018-12-23T04:40:31.494Z,5.53
2018-12-23T04:44:43.509Z,5.07
2018-12-23T04:48:55.500Z,5.40
2018-12-23T04:53:07.747Z,6.73
2018-12-23T04:57:19.733Z,5.40
2018-12-23T05:01:31.919Z,5.47
2018-12-23T05:05:43.747Z,6.57
2018-12-23T05:09:55.515Z,6.80
2018-12-23T05:14:07.180Z,6.13
2018-12-23T05:18:19.030Z,4.93
2018-12-23T05:22:31.139Z,6.10
2018-12-23T05:26:43.235Z,6.27
2018-12-23T05:30:55.293Z,5.93
2018-12-23T05:35:07.328Z,5.80
2018-12-23T05:39:19.419Z,6.00
2018-12-23T05:43:31.463Z,5.43
2018-12-23T05:47:42.984Z,6.27
2018-12-23T05:51:54.940Z,5.43
2018-12-23T05:56:06.740Z,5.43
2018-12-23T06:00:18.675Z,5.53
2018-12-23T06:04:30.685Z,5.83
2018-12-23T06:08:42.796Z,6.30
2018-12-23T06:12:54.948Z,5.07
2018-12-23T06:17:07.052Z,5.80
2018-12-23T06:21:19.115Z,6.10
2018-12-23T06:25:31.122Z,5.70
2018-12-23T06:29:43.226Z,5.83
2018-12-23T06:33:55.325Z,6.53
2018-12-23T06:38:07.362Z,5.97
2018-12-23T06:42:19.514Z,7.00
2018-12-23T06:46:31.634Z,6.73
2018-12-23T06:50:43.768Z,6.90
2018-12-23T06:54:55.766Z,6.67
2018-12-23T06:59:07.591Z,6.13
2018-12-23T07:03:19.535Z,6.33
2018-12-23T07:07:31.648Z,5.93
2018-12-23T07:11:43.477Z,6.77
2018-12-23T07:15:55.344Z,5.97
2018-12-23T07:20:07.315Z,6.13
2018-12-23T07:24:19.406Z,6.67
2018-12-23T07:28:31.410Z,6.17
2018-12-23T07:32:43.541Z,6.43
2018-12-23T07:36:55.718Z,6.70
2018-12-23T07:41:07.837Z,8.00
2018-12-23T07:45:19.883Z,8.10
2018-12-23T07:49:31.960Z,7.33
2018-12-23T07:53:44.066Z,7.37
2018-12-23T07:57:56.157Z,7.70
2018-12-23T08:02:07.711Z,8.37
2018-12-23T08:06:19.404Z,7.77
2018-12-23T08:10:31.280Z,8.67
2018-12-23T08:14:43.298Z,8.90
2018-12-23T08:18:55.208Z,8.13
2018-12-23T08:23:07.206Z,8.63
2018-12-23T08:27:19.194Z,8.00
2018-12-23T08:31:31.960Z,8.63
2018-12-23T08:35:43.716Z,7.87
2018-12-23T08:39:55.619Z,7.63
2018-12-23T08:44:07.528Z,7.90
2018-12-23T08:48:19.634Z,7.83
2018-12-23T08:52:31.650Z,7.53
2018-12-23T08:56:43.843Z,6.87
2018-12-23T09:00:55.958Z,6.73
2018-12-23T09:05:08.106Z,7.67
2018-12-23T09:09:20.174Z,8.00
2018-12-23T09:13:32.186Z,8.40
2018-12-23T09:17:44.264Z,7.83
2018-12-23T09:21:55.900Z,7.33
2018-12-23T09:26:07.622Z,7.47
2018-12-23T09:30:19.484Z,7.60
2018-12-23T09:34:31.470Z,7.03
2018-12-23T09:38:43.403Z,7.67
2018-12-23T09:42:55.545Z,7.03
2018-12-23T09:47:08.346Z,6.43
2018-12-23T09:51:20.224Z,6.73
2018-12-23T09:55:31.971Z,6.37
2018-12-23T09:59:51.216Z,6.70
2018-12-23T10:04:03.304Z,6.00
2018-12-23T10:08:14.827Z,7.23
2018-12-23T10:12:26.658Z,6.50
2018-12-23T10:16:38.542Z,6.83
2018-12-23T10:20:50.429Z,7.50
2018-12-23T10:25:02.414Z,6.43
2018-12-23T10:29:14.011Z,7.10
2018-12-23T10:33:25.957Z,6.33
2018-12-23T10:37:37.768Z,6.93
2018-12-23T10:41:49.681Z,6.40
2018-12-23T10:46:01.654Z,6.70
2018-12-23T10:50:13.890Z,6.97
2018-12-23T10:54:26.044Z,6.90
2018-12-23T10:58:38.078Z,8.00
2018-12-23T11:02:50.167Z,7.37
2018-12-23T11:07:02.166Z,6.93
2018-12-23T11:11:13.691Z,7.57
2018-12-23T11:15:25.499Z,7.70
2018-12-23T11:19:37.310Z,7.07
2018-12-23T11:23:49.070Z,7.30
2018-12-23T11:28:01.078Z,8.47
2018-12-23T11:32:13.203Z,8.00
2018-12-23T11:36:25.194Z,7.77
2018-12-23T11:40:37.298Z,7.43
2018-12-23T11:44:49.471Z,8.20
2018-12-23T11:49:01.470Z,7.63
2018-12-23T11:53:13.531Z,8.73
2018-12-23T11:57:25.705Z,8.27
2018-12-23T12:01:37.636Z,9.17
2018-12-23T12:05:49.531Z,9.20
2018-12-23T12:10:01.159Z,8.93
2018-12-23T12:14:12.921Z,8.07
2018-12-23T12:18:24.772Z,8.30
2018-12-23T12:22:36.820Z,8.73
2018-12-23T12:26:48.880Z,8.10
2018-12-23T12:31:01.241Z,9.33
2018-12-23T12:35:13.100Z,9.00
2018-12-23T12:39:25.190Z,9.20
2018-12-23T12:44:17.070Z,8.63
2018-12-23T12:48:30.255Z,9.67
2018-12-23T12:52:43.172Z,8.80
2018-12-23T12:56:56.319Z,9.53
2018-12-23T13:01:10.475Z,9.47
2018-12-23T13:05:23.506Z,10.67
2018-12-23T13:09:36.625Z,9.40
2018-12-23T13:13:49.469Z,10.60
2018-12-23T13:18:02.635Z,10.57
2018-12-23T13:22:15.884Z,9.80
2018-12-23T13:26:28.834Z,11.13
2018-12-23T13:30:42.018Z,10.63
2018-12-23T13:34:55.182Z,12.03
2018-12-23T13:39:11.110Z,10.57
2018-12-23T13:44:13.281Z,10.23
2018-12-23T13:49:06.915Z,10.20
2018-12-23T13:54:01.121Z,11.53
2018-12-23T13:58:44.919Z,11.77
2018-12-23T14:03:24.917Z,10.73
2018-12-23T14:08:06.830Z,10.43
2018-12-23T14:12:20.988Z,10.20
2018-12-23T14:16:33.745Z,10.47
2018-12-23T14:20:46.877Z,10.33
2018-12-23T14:24:59.813Z,10.23
2018-12-23T14:29:12.852Z,10.13
2018-12-23T14:33:26.024Z,10.23
2018-12-23T14:37:38.805Z,10.17
2018-12-23T14:41:52.055Z,11.40
2018-12-23T14:46:05.214Z,10.40
2018-12-23T14:50:17.995Z,10.20
2018-12-23T14:54:31.076Z,10.40
2018-12-23T14:58:44.328Z,12.20
2018-12-23T15:02:57.369Z,10.33
2018-12-23T15:07:10.533Z,9.60
2018-12-23T15:11:23.808Z,10.60
2018-12-23T15:15:36.724Z,10.83
2018-12-23T15:19:49.817Z,9.67
2018-12-23T15:24:02.638Z,10.10
2018-12-23T15:28:15.739Z,9.87
2018-12-23T15:32:29.512Z,10.13
2018-12-23T15:36:42.674Z,9.87
2018-12-23T15:40:55.564Z,9.07
2018-12-23T15:45:08.636Z,10.27
2018-12-23T15:49:21.843Z,10.53
2018-12-23T15:53:35.133Z,9.53
2018-12-23T15:57:48.156Z,9.70
2018-12-23T16:02:01.414Z,9.77
2018-12-23T16:06:14.640Z,9.17
2018-12-23T16:10:27.400Z,9.33
2018-12-23T16:14:40.528Z,9.10
2018-12-23T16:18:53.264Z,9.37
2018-12-23T16:23:06.281Z,9.20
2018-12-23T16:27:19.465Z,9.40
2018-12-23T16:31:32.328Z,9.37
2018-12-23T16:35:45.383Z,10.57
2018-12-23T16:39:59.675Z,9.90
2018-12-23T16:44:13.096Z,9.10
2018-12-23T16:48:26.442Z,9.50
2018-12-23T16:52:39.693Z,9.40
2018-12-23T16:56:52.474Z,9.83
2018-12-23T17:01:05.651Z,9.90
2018-12-23T17:05:18.381Z,8.73
2018-12-23T17:09:32.532Z,9.53
2018-12-23T17:13:45.460Z,10.10
2018-12-23T17:17:58.532Z,9.30
2018-12-23T17:22:11.852Z,8.90
2018-12-23T17:26:24.705Z,9.33
2018-12-23T17:30:38.018Z,9.20
2018-12-23T17:34:51.286Z,10.23
2018-12-23T17:39:05.064Z,10.90
2018-12-23T17:43:17.963Z,10.77
2018-12-23T17:47:31.124Z,10.63
2018-12-23T17:51:44.420Z,10.40
2018-12-23T17:55:57.132Z,9.43
2018-12-23T18:00:11.914Z,9.97
2018-12-23T18:04:25.251Z,10.17
2018-12-23T18:08:38.544Z,10.10
2018-12-23T18:12:52.540Z,10.57
2018-12-23T18:17:05.733Z,10.70
2018-12-23T18:21:20.198Z,10.93
2018-12-23T18:25:33.265Z,10.27
2018-12-23T18:29:46.559Z,10.60
2018-12-23T18:33:59.420Z,10.63
2018-12-23T18:38:12.600Z,10.47
2018-12-23T18:42:25.597Z,10.37
2018-12-23T18:46:38.757Z,10.30
2018-12-23T18:50:52.078Z,8.83
2018-12-23T18:55:05.031Z,9.37
2018-12-23T18:59:19.863Z,8.57
2018-12-23T19:03:33.092Z,9.30
2018-12-23T19:07:47.432Z,9.33
2018-12-23T19:12:35.584Z,9.87
2018-12-23T19:17:30.779Z,10.27
2018-12-23T19:22:17.559Z,9.77
2018-12-23T19:27:19.833Z,10.43
2018-12-23T19:32:20.379Z,9.80
2018-12-23T19:37:03.923Z,10.03
2018-12-23T19:41:59.930Z,10.23
2018-12-23T19:47:00.370Z,10.10
2018-12-23T19:51:49.631Z,10.10
2018-12-23T19:56:57.599Z,9.47
2018-12-23T20:01:53.120Z,11.23
2018-12-23T20:06:28.885Z,9.87
2018-12-23T20:11:26.564Z,10.13
2018-12-23T20:16:25.741Z,11.30
2018-12-23T20:21:12.464Z,10.73
2018-12-23T20:25:46.313Z,9.13
2018-12-23T20:30:27.153Z,9.40
2018-12-23T20:35:16.168Z,10.33
2018-12-23T20:40:05.589Z,9.80
2018-12-23T20:45:00.261Z,9.90
2018-12-23T20:49:52.811Z,8.97
2018-12-23T20:54:44.342Z,8.83
2018-12-23T20:59:26.092Z,9.07
2018-12-23T21:04:05.841Z,9.03
2018-12-23T21:08:53.698Z,9.43
2018-12-23T21:13:35.605Z,9.60
2018-12-23T21:18:06.051Z,9.93
2018-12-23T21:23:03.867Z,10.17
2018-12-23T21:27:59.908Z,9.70
2018-12-23T21:32:48.823Z,10.43
2018-12-23T21:37:30.276Z,10.47
2018-12-23T21:42:34.456Z,10.87
2018-12-23T21:47:29.825Z,11.70
2018-12-23T21:52:17.172Z,12.00
2018-12-23T21:57:04.705Z,11.43
2018-12-23T22:01:53.307Z,12.53
2018-12-23T22:06:36.071Z,12.20
2018-12-23T22:11:33.070Z,12.73
2018-12-23T22:15:42.217Z,13.43
2018-12-23T22:19:55.494Z,12.43
2018-12-23T22:24:08.911Z,13.53
2018-12-23T22:28:22.384Z,14.13
2018-12-23T22:32:35.632Z,14.07
2018-12-23T22:36:48.632Z,13.93
2018-12-23T22:41:11.675Z,15.17
2018-12-23T22:45:24.790Z,14.97
2018-12-23T22:49:38.228Z,14.97
2018-12-23T22:53:51.413Z,15.60
2018-12-23T22:58:04.247Z,13.70
2018-12-23T23:02:17.284Z,13.80
2018-12-23T23:06:30.472Z,15.53
2018-12-23T23:10:44.473Z,15.03
2018-12-23T23:14:57.673Z,15.03
2018-12-23T23:19:10.788Z,13.03
2018-12-23T23:23:24.935Z,13.17
2018-12-23T23:27:37.607Z,13.67
2018-12-23T23:31:51.460Z,11.33
2018-12-23T23:36:04.588Z,10.77
2018-12-23T23:40:17.783Z,10.50
2018-12-23T23:44:30.660Z,10.30
2018-12-23T23:48:44.015Z,10.13
2018-12-23T23:52:57.314Z,11.27
2018-12-23T23:57:10.058Z,10.40
